sensor_id;sensor_type;location;lat;lon;timestamp;temperature;humidity
72650;SHT31;61467;50.674;4.618;2023-03-01T00:00:11;2.81;56.09
72650;SHT31;61467;50.674;4.618;2023-03-01T00:02:38;2.85;56.10
72650;SHT31;61467;50.674;4.618;2023-03-01T00:05:06;2.83;56.07
72650;SHT31;61467;50.674;4.618;2023-03-01T00:07:33;2.79;56.01
72650;SHT31;61467;50.674;4.618;2023-03-01T00:09:59;2.80;56.17
72650;SHT31;61467;50.674;4.618;2023-03-01T00:12:26;2.71;56.32
72650;SHT31;61467;50.674;4.618;2023-03-01T00:14:54;2.71;56.48
72650;SHT31;61467;50.674;4.618;2023-03-01T00:17:21;2.73;56.73
72650;SHT31;61467;50.674;4.618;2023-03-01T00:19:48;2.73;56.64
72650;SHT31;61467;50.674;4.618;2023-03-01T00:22:15;2.70;56.70
72650;SHT31;61467;50.674;4.618;2023-03-01T00:24:41;2.70;56.56
72650;SHT31;61467;50.674;4.618;2023-03-01T00:27:08;2.68;57.06
72650;SHT31;61467;50.674;4.618;2023-03-01T00:29:35;2.70;56.71
72650;SHT31;61467;50.674;4.618;2023-03-01T00:32:04;2.56;56.94
72650;SHT31;61467;50.674;4.618;2023-03-01T00:34:30;2.51;57.32
72650;SHT31;61467;50.674;4.618;2023-03-01T00:36:57;2.53;57.31
72650;SHT31;61467;50.674;4.618;2023-03-01T00:39:30;2.54;57.65
72650;SHT31;61467;50.674;4.618;2023-03-01T00:41:57;2.54;57.36
72650;SHT31;61467;50.674;4.618;2023-03-01T00:44:24;2.56;57.53
72650;SHT31;61467;50.674;4.618;2023-03-01T00:46:51;2.49;57.61
72650;SHT31;61467;50.674;4.618;2023-03-01T00:49:19;2.29;57.95
72650;SHT31;61467;50.674;4.618;2023-03-01T00:51:46;2.39;57.95
72650;SHT31;61467;50.674;4.618;2023-03-01T00:54:12;2.41;57.98
72650;SHT31;61467;50.674;4.618;2023-03-01T00:56:39;2.40;57.94
72650;SHT31;61467;50.674;4.618;2023-03-01T00:59:06;2.37;58.29
72650;SHT31;61467;50.674;4.618;2023-03-01T01:01:33;2.37;58.07
72650;SHT31;61467;50.674;4.618;2023-03-01T01:04:01;2.39;58.04
72650;SHT31;61467;50.674;4.618;2023-03-01T01:06:33;2.34;58.47
72650;SHT31;61467;50.674;4.618;2023-03-01T01:09:01;2.32;58.31
72650;SHT31;61467;50.674;4.618;2023-03-01T01:11:29;2.32;58.70
72650;SHT31;61467;50.674;4.618;2023-03-01T01:13:57;2.33;58.27
72650;SHT31;61467;50.674;4.618;2023-03-01T01:16:25;2.06;59.10
72650;SHT31;61467;50.674;4.618;2023-03-01T01:18:52;2.02;59.01
72650;SHT31;61467;50.674;4.618;2023-03-01T01:21:21;1.97;59.21
72650;SHT31;61467;50.674;4.618;2023-03-01T01:23:50;2.10;59.22
72650;SHT31;61467;50.674;4.618;2023-03-01T01:26:19;2.03;59.08
72650;SHT31;61467;50.674;4.618;2023-03-01T01:28:46;1.94;59.29
72650;SHT31;61467;50.674;4.618;2023-03-01T01:31:13;1.79;59.63
72650;SHT31;61467;50.674;4.618;2023-03-01T01:33:40;1.74;59.77
72650;SHT31;61467;50.674;4.618;2023-03-01T01:36:08;1.78;59.95
72650;SHT31;61467;50.674;4.618;2023-03-01T01:38:35;1.72;60.01
72650;SHT31;61467;50.674;4.618;2023-03-01T01:41:05;1.77;59.95
72650;SHT31;61467;50.674;4.618;2023-03-01T01:43:34;1.85;59.91
72650;SHT31;61467;50.674;4.618;2023-03-01T01:46:03;1.88;59.76
72650;SHT31;61467;50.674;4.618;2023-03-01T01:48:37;1.89;59.67
72650;SHT31;61467;50.674;4.618;2023-03-01T01:51:08;1.78;59.85
72650;SHT31;61467;50.674;4.618;2023-03-01T01:53:37;1.74;60.20
72650;SHT31;61467;50.674;4.618;2023-03-01T01:56:07;1.82;59.83
72650;SHT31;61467;50.674;4.618;2023-03-01T01:58:36;1.79;59.93
72650;SHT31;61467;50.674;4.618;2023-03-01T02:01:04;1.67;60.11
72650;SHT31;61467;50.674;4.618;2023-03-01T02:03:33;1.67;60.42
72650;SHT31;61467;50.674;4.618;2023-03-01T02:06:04;1.68;60.66
72650;SHT31;61467;50.674;4.618;2023-03-01T02:08:36;1.67;60.50
72650;SHT31;61467;50.674;4.618;2023-03-01T02:11:05;1.48;60.76
72650;SHT31;61467;50.674;4.618;2023-03-01T02:13:33;1.52;61.10
72650;SHT31;61467;50.674;4.618;2023-03-01T02:16:03;1.61;61.11
72650;SHT31;61467;50.674;4.618;2023-03-01T02:18:30;1.57;60.99
72650;SHT31;61467;50.674;4.618;2023-03-01T02:21:18;1.64;60.68
72650;SHT31;61467;50.674;4.618;2023-03-01T02:23:50;1.64;60.77
72650;SHT31;61467;50.674;4.618;2023-03-01T02:26:21;1.65;60.77
72650;SHT31;61467;50.674;4.618;2023-03-01T02:28:52;1.68;60.65
72650;SHT31;61467;50.674;4.618;2023-03-01T02:31:21;1.61;60.69
72650;SHT31;61467;50.674;4.618;2023-03-01T02:34:12;1.64;60.63
72650;SHT31;61467;50.674;4.618;2023-03-01T02:36:43;1.64;60.76
72650;SHT31;61467;50.674;4.618;2023-03-01T02:39:14;1.65;61.13
72650;SHT31;61467;50.674;4.618;2023-03-01T02:41:45;1.68;61.05
72650;SHT31;61467;50.674;4.618;2023-03-01T02:44:14;1.65;61.09
72650;SHT31;61467;50.674;4.618;2023-03-01T02:46:46;1.61;60.99
72650;SHT31;61467;50.674;4.618;2023-03-01T02:49:19;1.67;60.84
72650;SHT31;61467;50.674;4.618;2023-03-01T02:51:54;1.65;60.75
72650;SHT31;61467;50.674;4.618;2023-03-01T02:54:26;1.65;60.72
72650;SHT31;61467;50.674;4.618;2023-03-01T02:56:56;1.64;60.83
72650;SHT31;61467;50.674;4.618;2023-03-01T02:59:28;1.61;61.11
72650;SHT31;61467;50.674;4.618;2023-03-01T03:01:55;1.60;61.21
72650;SHT31;61467;50.674;4.618;2023-03-01T03:04:22;1.57;60.90
72650;SHT31;61467;50.674;4.618;2023-03-01T03:06:50;1.52;61.04
72650;SHT31;61467;50.674;4.618;2023-03-01T03:09:18;1.57;61.26
72650;SHT31;61467;50.674;4.618;2023-03-01T03:11:45;1.51;61.47
72650;SHT31;61467;50.674;4.618;2023-03-01T03:14:14;1.52;61.20
72650;SHT31;61467;50.674;4.618;2023-03-01T03:16:44;1.51;61.42
72650;SHT31;61467;50.674;4.618;2023-03-01T03:19:11;1.51;61.58
72650;SHT31;61467;50.674;4.618;2023-03-01T03:21:39;1.54;61.38
72650;SHT31;61467;50.674;4.618;2023-03-01T03:24:06;1.50;61.32
72650;SHT31;61467;50.674;4.618;2023-03-01T03:26:32;1.48;61.47
72650;SHT31;61467;50.674;4.618;2023-03-01T03:28:59;1.52;61.82
72650;SHT31;61467;50.674;4.618;2023-03-01T03:31:27;1.50;61.83
72650;SHT31;61467;50.674;4.618;2023-03-01T03:33:55;1.44;61.78
72650;SHT31;61467;50.674;4.618;2023-03-01T03:36:24;1.43;61.79
72650;SHT31;61467;50.674;4.618;2023-03-01T03:38:51;1.33;62.26
72650;SHT31;61467;50.674;4.618;2023-03-01T03:41:18;1.37;62.01
72650;SHT31;61467;50.674;4.618;2023-03-01T03:43:45;1.30;62.15
72650;SHT31;61467;50.674;4.618;2023-03-01T03:46:12;1.27;62.37
72650;SHT31;61467;50.674;4.618;2023-03-01T03:48:41;1.20;62.40
72650;SHT31;61467;50.674;4.618;2023-03-01T03:51:12;1.23;62.63
72650;SHT31;61467;50.674;4.618;2023-03-01T03:53:39;1.22;62.67
72650;SHT31;61467;50.674;4.618;2023-03-01T03:56:06;1.23;62.57
72650;SHT31;61467;50.674;4.618;2023-03-01T03:58:33;1.26;62.63
72650;SHT31;61467;50.674;4.618;2023-03-01T04:01:00;1.24;62.49
72650;SHT31;61467;50.674;4.618;2023-03-01T04:03:28;1.24;62.71
72650;SHT31;61467;50.674;4.618;2023-03-01T04:05:57;1.24;62.68
72650;SHT31;61467;50.674;4.618;2023-03-01T04:08:26;1.26;62.42
72650;SHT31;61467;50.674;4.618;2023-03-01T04:10:57;1.27;62.27
72650;SHT31;61467;50.674;4.618;2023-03-01T04:13:25;1.27;62.42
72650;SHT31;61467;50.674;4.618;2023-03-01T04:15:53;1.27;62.69
72650;SHT31;61467;50.674;4.618;2023-03-01T04:18:21;1.17;62.99
72650;SHT31;61467;50.674;4.618;2023-03-01T04:20:49;1.17;62.71
72650;SHT31;61467;50.674;4.618;2023-03-01T04:23:20;1.16;62.90
72650;SHT31;61467;50.674;4.618;2023-03-01T04:25:50;1.13;62.78
72650;SHT31;61467;50.674;4.618;2023-03-01T04:28:21;1.16;62.92
72650;SHT31;61467;50.674;4.618;2023-03-01T04:30:50;1.13;62.76
72650;SHT31;61467;50.674;4.618;2023-03-01T04:33:17;1.15;62.91
72650;SHT31;61467;50.674;4.618;2023-03-01T04:35:44;1.12;62.77
72650;SHT31;61467;50.674;4.618;2023-03-01T04:38:11;1.09;63.12
72650;SHT31;61467;50.674;4.618;2023-03-01T04:40:38;1.07;63.16
72650;SHT31;61467;50.674;4.618;2023-03-01T04:43:10;1.06;63.04
72650;SHT31;61467;50.674;4.618;2023-03-01T04:45:36;1.03;63.24
72650;SHT31;61467;50.674;4.618;2023-03-01T04:48:04;0.89;63.51
72650;SHT31;61467;50.674;4.618;2023-03-01T04:50:31;0.89;63.76
72650;SHT31;61467;50.674;4.618;2023-03-01T04:52:57;0.93;63.89
72650;SHT31;61467;50.674;4.618;2023-03-01T04:55:25;0.96;63.69
72650;SHT31;61467;50.674;4.618;2023-03-01T04:57:52;0.82;63.97
72650;SHT31;61467;50.674;4.618;2023-03-01T05:00:22;0.82;64.01
72650;SHT31;61467;50.674;4.618;2023-03-01T05:02:51;0.85;63.92
72650;SHT31;61467;50.674;4.618;2023-03-01T05:05:21;0.90;63.84
72650;SHT31;61467;50.674;4.618;2023-03-01T05:07:51;0.90;63.85
72650;SHT31;61467;50.674;4.618;2023-03-01T05:10:18;0.92;63.93
72650;SHT31;61467;50.674;4.618;2023-03-01T05:12:45;0.93;63.73
72650;SHT31;61467;50.674;4.618;2023-03-01T05:15:12;0.96;63.64
72650;SHT31;61467;50.674;4.618;2023-03-01T05:17:41;0.97;63.82
72650;SHT31;61467;50.674;4.618;2023-03-01T05:20:09;0.97;63.49
72650;SHT31;61467;50.674;4.618;2023-03-01T05:22:36;0.96;63.76
72650;SHT31;61467;50.674;4.618;2023-03-01T05:25:03;0.96;63.68
72650;SHT31;61467;50.674;4.618;2023-03-01T05:27:30;0.93;63.68
72650;SHT31;61467;50.674;4.618;2023-03-01T05:29:57;0.92;63.96
72650;SHT31;61467;50.674;4.618;2023-03-01T05:32:24;0.93;63.83
72650;SHT31;61467;50.674;4.618;2023-03-01T05:34:52;0.92;63.94
72650;SHT31;61467;50.674;4.618;2023-03-01T05:37:20;0.88;63.76
72650;SHT31;61467;50.674;4.618;2023-03-01T05:39:47;0.88;63.93
72650;SHT31;61467;50.674;4.618;2023-03-01T05:42:15;0.86;64.03
72650;SHT31;61467;50.674;4.618;2023-03-01T05:44:42;0.83;64.03
72650;SHT31;61467;50.674;4.618;2023-03-01T05:47:09;0.80;64.21
72650;SHT31;61467;50.674;4.618;2023-03-01T05:49:36;0.71;64.46
72650;SHT31;61467;50.674;4.618;2023-03-01T05:52:05;0.72;64.33
72650;SHT31;61467;50.674;4.618;2023-03-01T05:54:31;0.66;64.40
72650;SHT31;61467;50.674;4.618;2023-03-01T05:56:58;0.66;64.49
72650;SHT31;61467;50.674;4.618;2023-03-01T05:59:25;0.61;64.57
72650;SHT31;61467;50.674;4.618;2023-03-01T06:01:52;0.65;64.56
72650;SHT31;61467;50.674;4.618;2023-03-01T06:04:18;0.72;64.32
72650;SHT31;61467;50.674;4.618;2023-03-01T06:06:46;0.62;64.69
72650;SHT31;61467;50.674;4.618;2023-03-01T06:09:14;0.64;64.67
72650;SHT31;61467;50.674;4.618;2023-03-01T06:11:41;0.61;64.74
72650;SHT31;61467;50.674;4.618;2023-03-01T06:14:08;0.59;64.82
72650;SHT31;61467;50.674;4.618;2023-03-01T06:16:35;0.65;64.69
72650;SHT31;61467;50.674;4.618;2023-03-01T06:19:02;0.65;64.79
72650;SHT31;61467;50.674;4.618;2023-03-01T06:21:29;0.65;64.65
72650;SHT31;61467;50.674;4.618;2023-03-01T06:23:56;0.65;64.74
72650;SHT31;61467;50.674;4.618;2023-03-01T06:26:24;0.62;64.88
72650;SHT31;61467;50.674;4.618;2023-03-01T06:28:51;0.62;64.69
72650;SHT31;61467;50.674;4.618;2023-03-01T06:31:18;0.59;64.75
72650;SHT31;61467;50.674;4.618;2023-03-01T06:33:45;0.52;64.95
72650;SHT31;61467;50.674;4.618;2023-03-01T06:36:11;0.54;65.05
72650;SHT31;61467;50.674;4.618;2023-03-01T06:38:38;0.49;64.96
72650;SHT31;61467;50.674;4.618;2023-03-01T06:41:06;0.47;65.07
72650;SHT31;61467;50.674;4.618;2023-03-01T06:43:34;0.41;65.28
72650;SHT31;61467;50.674;4.618;2023-03-01T06:46:04;0.48;65.25
72650;SHT31;61467;50.674;4.618;2023-03-01T06:48:32;0.49;65.16
72650;SHT31;61467;50.674;4.618;2023-03-01T06:50:59;0.57;65.22
72650;SHT31;61467;50.674;4.618;2023-03-01T06:53:28;0.61;65.49
72650;SHT31;61467;50.674;4.618;2023-03-01T06:55:55;0.66;64.99
72650;SHT31;61467;50.674;4.618;2023-03-01T06:58:22;0.71;64.87
72650;SHT31;61467;50.674;4.618;2023-03-01T07:00:50;0.75;64.82
72650;SHT31;61467;50.674;4.618;2023-03-01T07:03:18;0.75;65.18
72650;SHT31;61467;50.674;4.618;2023-03-01T07:05:45;0.78;64.85
72650;SHT31;61467;50.674;4.618;2023-03-01T07:08:14;0.83;65.00
72650;SHT31;61467;50.674;4.618;2023-03-01T07:10:41;0.86;64.60
72650;SHT31;61467;50.674;4.618;2023-03-01T07:13:08;0.86;64.31
72650;SHT31;61467;50.674;4.618;2023-03-01T07:15:35;0.92;64.29
72650;SHT31;61467;50.674;4.618;2023-03-01T07:18:03;0.95;64.31
72650;SHT31;61467;50.674;4.618;2023-03-01T07:20:30;1.04;63.77
72650;SHT31;61467;50.674;4.618;2023-03-01T07:22:57;0.93;64.04
72650;SHT31;61467;50.674;4.618;2023-03-01T07:25:24;0.95;64.23
72650;SHT31;61467;50.674;4.618;2023-03-01T07:27:51;0.96;64.17
72650;SHT31;61467;50.674;4.618;2023-03-01T07:30:19;1.03;64.06
72650;SHT31;61467;50.674;4.618;2023-03-01T07:32:46;0.83;64.34
72650;SHT31;61467;50.674;4.618;2023-03-01T07:35:14;1.02;64.31
72650;SHT31;61467;50.674;4.618;2023-03-01T07:37:41;1.09;64.14
72650;SHT31;61467;50.674;4.618;2023-03-01T07:40:09;1.17;63.85
72650;SHT31;61467;50.674;4.618;2023-03-01T07:42:36;0.80;65.09
72650;SHT31;61467;50.674;4.618;2023-03-01T07:45:03;1.12;64.20
72650;SHT31;61467;50.674;4.618;2023-03-01T07:47:30;0.66;64.70
72650;SHT31;61467;50.674;4.618;2023-03-01T07:49:57;0.93;64.77
72650;SHT31;61467;50.674;4.618;2023-03-01T07:52:25;1.22;64.13
72650;SHT31;61467;50.674;4.618;2023-03-01T07:54:52;1.10;64.48
72650;SHT31;61467;50.674;4.618;2023-03-01T07:57:19;1.16;63.53
72650;SHT31;61467;50.674;4.618;2023-03-01T07:59:46;1.31;63.50
72650;SHT31;61467;50.674;4.618;2023-03-01T08:02:13;1.27;63.69
72650;SHT31;61467;50.674;4.618;2023-03-01T08:04:40;1.20;64.01
72650;SHT31;61467;50.674;4.618;2023-03-01T08:07:07;1.12;64.04
72650;SHT31;61467;50.674;4.618;2023-03-01T08:09:35;1.26;63.71
72650;SHT31;61467;50.674;4.618;2023-03-01T08:12:03;1.23;63.85
72650;SHT31;61467;50.674;4.618;2023-03-01T08:14:31;1.34;64.04
72650;SHT31;61467;50.674;4.618;2023-03-01T08:16:58;1.52;63.44
72650;SHT31;61467;50.674;4.618;2023-03-01T08:19:24;1.52;63.49
72650;SHT31;61467;50.674;4.618;2023-03-01T08:21:53;1.22;64.64
72650;SHT31;61467;50.674;4.618;2023-03-01T08:24:20;1.46;63.90
72650;SHT31;61467;50.674;4.618;2023-03-01T08:26:49;1.61;63.76
72650;SHT31;61467;50.674;4.618;2023-03-01T08:29:16;1.24;64.59
72650;SHT31;61467;50.674;4.618;2023-03-01T08:31:43;1.62;64.17
72650;SHT31;61467;50.674;4.618;2023-03-01T08:34:11;1.58;64.10
72650;SHT31;61467;50.674;4.618;2023-03-01T08:36:40;1.82;63.97
72650;SHT31;61467;50.674;4.618;2023-03-01T08:39:08;1.72;63.62
72650;SHT31;61467;50.674;4.618;2023-03-01T08:41:36;1.92;62.94
72650;SHT31;61467;50.674;4.618;2023-03-01T08:44:05;1.86;63.65
72650;SHT31;61467;50.674;4.618;2023-03-01T08:46:33;1.79;63.59
72650;SHT31;61467;50.674;4.618;2023-03-01T08:49:03;1.97;63.14
72650;SHT31;61467;50.674;4.618;2023-03-01T08:51:30;2.05;62.57
72650;SHT31;61467;50.674;4.618;2023-03-01T08:53:57;2.16;62.53
72650;SHT31;61467;50.674;4.618;2023-03-01T08:56:24;2.05;63.01
72650;SHT31;61467;50.674;4.618;2023-03-01T08:58:51;2.09;63.11
72650;SHT31;61467;50.674;4.618;2023-03-01T09:01:21;1.98;63.24
72650;SHT31;61467;50.674;4.618;2023-03-01T09:03:48;2.29;62.44
72650;SHT31;61467;50.674;4.618;2023-03-01T09:06:15;1.97;63.51
72650;SHT31;61467;50.674;4.618;2023-03-01T09:08:43;2.19;62.95
72650;SHT31;61467;50.674;4.618;2023-03-01T09:11:12;2.39;62.29
72650;SHT31;61467;50.674;4.618;2023-03-01T09:13:40;2.09;63.76
72650;SHT31;61467;50.674;4.618;2023-03-01T09:16:08;2.22;63.00
72650;SHT31;61467;50.674;4.618;2023-03-01T09:18:36;2.46;62.62
72650;SHT31;61467;50.674;4.618;2023-03-01T09:21:04;2.37;62.57
72650;SHT31;61467;50.674;4.618;2023-03-01T09:23:32;2.41;61.52
72650;SHT31;61467;50.674;4.618;2023-03-01T09:25:59;2.22;62.29
72650;SHT31;61467;50.674;4.618;2023-03-01T09:28:26;2.20;63.22
72650;SHT31;61467;50.674;4.618;2023-03-01T09:30:53;2.58;62.13
72650;SHT31;61467;50.674;4.618;2023-03-01T09:33:20;2.71;61.57
72650;SHT31;61467;50.674;4.618;2023-03-01T09:35:48;2.88;61.25
72650;SHT31;61467;50.674;4.618;2023-03-01T09:38:15;2.87;61.27
72650;SHT31;61467;50.674;4.618;2023-03-01T09:40:43;2.83;60.51
72650;SHT31;61467;50.674;4.618;2023-03-01T09:43:20;2.81;60.81
72650;SHT31;61467;50.674;4.618;2023-03-01T09:45:49;2.83;61.16
72650;SHT31;61467;50.674;4.618;2023-03-01T09:48:20;2.91;60.89
72650;SHT31;61467;50.674;4.618;2023-03-01T09:50:50;2.84;60.96
72650;SHT31;61467;50.674;4.618;2023-03-01T09:53:19;2.88;62.21
72650;SHT31;61467;50.674;4.618;2023-03-01T09:55:50;3.11;61.48
72650;SHT31;61467;50.674;4.618;2023-03-01T09:58:48;2.90;60.66
72650;SHT31;61467;50.674;4.618;2023-03-01T10:01:28;2.71;60.70
72650;SHT31;61467;50.674;4.618;2023-03-01T10:07:13;2.92;60.83
72650;SHT31;61467;50.674;4.618;2023-03-01T10:09:44;3.05;59.75
72650;SHT31;61467;50.674;4.618;2023-03-01T10:12:13;3.07;59.91
72650;SHT31;61467;50.674;4.618;2023-03-01T10:14:47;3.19;59.72
72650;SHT31;61467;50.674;4.618;2023-03-01T10:17:24;3.13;59.80
72650;SHT31;61467;50.674;4.618;2023-03-01T10:19:52;3.42;59.39
72650;SHT31;61467;50.674;4.618;2023-03-01T10:22:22;3.70;58.95
72650;SHT31;61467;50.674;4.618;2023-03-01T10:24:52;3.50;57.62
72650;SHT31;61467;50.674;4.618;2023-03-01T10:27:21;3.50;57.53
72650;SHT31;61467;50.674;4.618;2023-03-01T10:29:55;3.63;57.70
72650;SHT31;61467;50.674;4.618;2023-03-01T10:32:25;3.67;56.96
72650;SHT31;61467;50.674;4.618;2023-03-01T10:34:52;3.94;57.12
72650;SHT31;61467;50.674;4.618;2023-03-01T10:37:21;4.17;56.80
72650;SHT31;61467;50.674;4.618;2023-03-01T10:39:57;4.27;56.60
72650;SHT31;61467;50.674;4.618;2023-03-01T10:42:29;4.38;55.43
72650;SHT31;61467;50.674;4.618;2023-03-01T10:44:57;4.37;55.49
72650;SHT31;61467;50.674;4.618;2023-03-01T10:47:26;4.62;54.85
72650;SHT31;61467;50.674;4.618;2023-03-01T10:49:59;4.63;53.71
72650;SHT31;61467;50.674;4.618;2023-03-01T10:52:33;4.73;53.82
72650;SHT31;61467;50.674;4.618;2023-03-01T10:55:17;4.61;54.02
72650;SHT31;61467;50.674;4.618;2023-03-01T10:57:49;4.69;53.56
72650;SHT31;61467;50.674;4.618;2023-03-01T11:00:20;4.59;53.50
72650;SHT31;61467;50.674;4.618;2023-03-01T11:02:49;4.66;53.78
72650;SHT31;61467;50.674;4.618;2023-03-01T11:05:20;5.01;53.35
72650;SHT31;61467;50.674;4.618;2023-03-01T11:07:51;5.26;54.06
72650;SHT31;61467;50.674;4.618;2023-03-01T11:10:21;5.27;51.80
72650;SHT31;61467;50.674;4.618;2023-03-01T11:12:50;5.30;50.76
72650;SHT31;61467;50.674;4.618;2023-03-01T11:15:23;5.20;52.09
72650;SHT31;61467;50.674;4.618;2023-03-01T11:17:50;5.21;52.83
72650;SHT31;61467;50.674;4.618;2023-03-01T11:20:24;5.20;52.08
72650;SHT31;61467;50.674;4.618;2023-03-01T11:22:54;5.64;51.53
72650;SHT31;61467;50.674;4.618;2023-03-01T11:25:24;5.76;51.92
72650;SHT31;61467;50.674;4.618;2023-03-01T11:27:52;5.40;50.76
72650;SHT31;61467;50.674;4.618;2023-03-01T11:30:22;5.61;50.14
72650;SHT31;61467;50.674;4.618;2023-03-01T11:32:56;5.66;50.71
72650;SHT31;61467;50.674;4.618;2023-03-01T11:35:26;5.56;51.02
72650;SHT31;61467;50.674;4.618;2023-03-01T11:38:09;5.47;51.20
72650;SHT31;61467;50.674;4.618;2023-03-01T11:40:42;5.86;50.54
72650;SHT31;61467;50.674;4.618;2023-03-01T11:43:16;6.06;49.91
72650;SHT31;61467;50.674;4.618;2023-03-01T11:48:53;6.48;48.73
72650;SHT31;61467;50.674;4.618;2023-03-01T11:51:37;6.37;49.17
72650;SHT31;61467;50.674;4.618;2023-03-01T11:54:13;6.43;49.64
72650;SHT31;61467;50.674;4.618;2023-03-01T11:56:48;6.63;48.22
72650;SHT31;61467;50.674;4.618;2023-03-01T12:03:01;6.89;47.96
72650;SHT31;61467;50.674;4.618;2023-03-01T12:05:52;7.08;47.26
72650;SHT31;61467;50.674;4.618;2023-03-01T12:08:27;7.03;47.37
72650;SHT31;61467;50.674;4.618;2023-03-01T12:11:03;6.89;46.38
72650;SHT31;61467;50.674;4.618;2023-03-01T12:13:48;6.98;47.37
72650;SHT31;61467;50.674;4.618;2023-03-01T12:16:30;6.91;46.72
72650;SHT31;61467;50.674;4.618;2023-03-01T12:19:33;7.13;46.89
72650;SHT31;61467;50.674;4.618;2023-03-01T12:22:16;7.39;45.99
72650;SHT31;61467;50.674;4.618;2023-03-01T12:24:55;7.52;45.77
72650;SHT31;61467;50.674;4.618;2023-03-01T12:27:45;7.52;45.39
72650;SHT31;61467;50.674;4.618;2023-03-01T12:30:29;7.53;45.76
72650;SHT31;61467;50.674;4.618;2023-03-01T12:33:17;7.97;45.12
72650;SHT31;61467;50.674;4.618;2023-03-01T12:36:14;7.67;45.16
72650;SHT31;61467;50.674;4.618;2023-03-01T12:38:49;7.59;44.45
72650;SHT31;61467;50.674;4.618;2023-03-01T12:41:29;7.57;44.77
72650;SHT31;61467;50.674;4.618;2023-03-01T12:44:10;7.33;44.57
72650;SHT31;61467;50.674;4.618;2023-03-01T12:46:48;7.23;43.91
72650;SHT31;61467;50.674;4.618;2023-03-01T12:49:23;7.36;43.89
72650;SHT31;61467;50.674;4.618;2023-03-01T12:51:54;7.73;43.91
72650;SHT31;61467;50.674;4.618;2023-03-01T12:54:28;7.84;43.49
72650;SHT31;61467;50.674;4.618;2023-03-01T12:56:57;7.77;42.97
72650;SHT31;61467;50.674;4.618;2023-03-01T12:59:34;7.77;41.47
72650;SHT31;61467;50.674;4.618;2023-03-01T13:02:10;7.83;41.85
72650;SHT31;61467;50.674;4.618;2023-03-01T13:04:59;7.64;41.21
72650;SHT31;61467;50.674;4.618;2023-03-01T13:07:31;7.50;42.40
72650;SHT31;61467;50.674;4.618;2023-03-01T13:10:15;7.62;42.61
72650;SHT31;61467;50.674;4.618;2023-03-01T13:12:48;8.06;42.51
72650;SHT31;61467;50.674;4.618;2023-03-01T13:15:32;8.01;41.41
72650;SHT31;61467;50.674;4.618;2023-03-01T13:18:00;8.57;41.67
72650;SHT31;61467;50.674;4.618;2023-03-01T13:20:32;8.72;41.02
72650;SHT31;61467;50.674;4.618;2023-03-01T13:23:06;8.66;40.47
72650;SHT31;61467;50.674;4.618;2023-03-01T13:26:04;8.76;40.81
72650;SHT31;61467;50.674;4.618;2023-03-01T13:28:58;8.55;41.35
72650;SHT31;61467;50.674;4.618;2023-03-01T13:32:04;8.25;42.04
72650;SHT31;61467;50.674;4.618;2023-03-01T13:34:48;8.20;42.16
72650;SHT31;61467;50.674;4.618;2023-03-01T13:37:25;8.12;42.22
72650;SHT31;61467;50.674;4.618;2023-03-01T13:39:55;8.14;41.04
72650;SHT31;61467;50.674;4.618;2023-03-01T13:42:40;8.34;40.60
72650;SHT31;61467;50.674;4.618;2023-03-01T13:45:24;7.95;40.80
72650;SHT31;61467;50.674;4.618;2023-03-01T13:47:56;7.85;42.00
72650;SHT31;61467;50.674;4.618;2023-03-01T13:50:27;8.11;41.11
72650;SHT31;61467;50.674;4.618;2023-03-01T13:52:58;8.34;41.39
72650;SHT31;61467;50.674;4.618;2023-03-01T13:55:32;8.18;41.67
72650;SHT31;61467;50.674;4.618;2023-03-01T13:58:05;8.11;41.64
72650;SHT31;61467;50.674;4.618;2023-03-01T14:00:40;7.90;41.53
72650;SHT31;61467;50.674;4.618;2023-03-01T14:03:13;8.01;41.19
72650;SHT31;61467;50.674;4.618;2023-03-01T14:05:41;8.11;40.33
72650;SHT31;61467;50.674;4.618;2023-03-01T14:08:21;8.24;39.51
72650;SHT31;61467;50.674;4.618;2023-03-01T14:11:04;8.50;39.49
72650;SHT31;61467;50.674;4.618;2023-03-01T14:16:36;8.67;40.66
72650;SHT31;61467;50.674;4.618;2023-03-01T14:19:14;8.62;40.03
72650;SHT31;61467;50.674;4.618;2023-03-01T14:21:43;8.26;40.15
72650;SHT31;61467;50.674;4.618;2023-03-01T14:24:17;8.05;40.53
72650;SHT31;61467;50.674;4.618;2023-03-01T14:26:44;7.87;40.78
72650;SHT31;61467;50.674;4.618;2023-03-01T14:29:26;8.01;41.13
72650;SHT31;61467;50.674;4.618;2023-03-01T14:31:53;8.29;40.73
72650;SHT31;61467;50.674;4.618;2023-03-01T14:34:22;7.95;41.39
72650;SHT31;61467;50.674;4.618;2023-03-01T14:36:49;7.97;41.41
72650;SHT31;61467;50.674;4.618;2023-03-01T14:39:18;8.11;41.30
72650;SHT31;61467;50.674;4.618;2023-03-01T14:41:45;8.05;41.15
72650;SHT31;61467;50.674;4.618;2023-03-01T14:44:16;7.95;41.08
72650;SHT31;61467;50.674;4.618;2023-03-01T14:46:52;7.75;41.11
72650;SHT31;61467;50.674;4.618;2023-03-01T14:49:22;7.44;41.96
72650;SHT31;61467;50.674;4.618;2023-03-01T14:51:53;7.26;42.31
72650;SHT31;61467;50.674;4.618;2023-03-01T14:54:25;7.34;42.36
72650;SHT31;61467;50.674;4.618;2023-03-01T14:56:53;7.50;41.64
72650;SHT31;61467;50.674;4.618;2023-03-01T14:59:22;7.16;41.89
72650;SHT31;61467;50.674;4.618;2023-03-01T15:01:53;7.46;43.12
72650;SHT31;61467;50.674;4.618;2023-03-01T15:04:22;7.40;42.58
72650;SHT31;61467;50.674;4.618;2023-03-01T15:06:51;7.32;42.22
72650;SHT31;61467;50.674;4.618;2023-03-01T15:09:19;7.34;41.91
72650;SHT31;61467;50.674;4.618;2023-03-01T15:11:49;7.34;42.25
72650;SHT31;61467;50.674;4.618;2023-03-01T15:14:38;7.39;42.71
72650;SHT31;61467;50.674;4.618;2023-03-01T15:17:20;7.62;42.68
72650;SHT31;61467;50.674;4.618;2023-03-01T15:19:49;7.59;42.88
72650;SHT31;61467;50.674;4.618;2023-03-01T15:22:16;7.44;42.34
72650;SHT31;61467;50.674;4.618;2023-03-01T15:24:47;7.54;43.17
72650;SHT31;61467;50.674;4.618;2023-03-01T15:27:17;7.39;42.84
72650;SHT31;61467;50.674;4.618;2023-03-01T15:29:49;7.19;43.63
72650;SHT31;61467;50.674;4.618;2023-03-01T15:32:29;7.05;44.42
72650;SHT31;61467;50.674;4.618;2023-03-01T15:34:56;7.29;44.87
72650;SHT31;61467;50.674;4.618;2023-03-01T15:37:39;7.13;45.06
72650;SHT31;61467;50.674;4.618;2023-03-01T15:40:19;7.13;45.20
72650;SHT31;61467;50.674;4.618;2023-03-01T15:42:46;7.36;44.11
72650;SHT31;61467;50.674;4.618;2023-03-01T15:45:23;7.22;43.73
72650;SHT31;61467;50.674;4.618;2023-03-01T15:47:57;6.99;44.54
72650;SHT31;61467;50.674;4.618;2023-03-01T15:50:28;6.74;45.04
72650;SHT31;61467;50.674;4.618;2023-03-01T15:52:59;6.78;45.48
72650;SHT31;61467;50.674;4.618;2023-03-01T15:55:29;6.71;45.25
72650;SHT31;61467;50.674;4.618;2023-03-01T15:57:59;6.87;45.64
72650;SHT31;61467;50.674;4.618;2023-03-01T16:00:27;6.87;45.42
72650;SHT31;61467;50.674;4.618;2023-03-01T16:02:56;6.91;45.24
72650;SHT31;61467;50.674;4.618;2023-03-01T16:05:31;6.72;45.11
72650;SHT31;61467;50.674;4.618;2023-03-01T16:07:58;6.92;44.96
72650;SHT31;61467;50.674;4.618;2023-03-01T16:10:26;7.03;44.93
72650;SHT31;61467;50.674;4.618;2023-03-01T16:12:53;6.94;44.69
72650;SHT31;61467;50.674;4.618;2023-03-01T16:15:22;6.71;44.38
72650;SHT31;61467;50.674;4.618;2023-03-01T16:17:50;6.74;44.08